Glemsford, United Kingdom
Current Conditions -  °F | °C
As of 4:50 PM on Saturday 20 Dec 2014 (Local Time) from EGUW Reporting Station
Clear Clear  
Wind Chill:   Ceiling: Unl
Heat Index:   Visibility: 6mi
Dew Point:   Wind: 16mph
Humidity: 76%   Direction: 270°W
Pressure: 30.27"   Gusts: NA
Location:  52.1°N, 0.67°E
Report Text: EGUW 201650Z AUTO 27014KT 9999 NCD 06/02 Q1025
Loading
Personal Weather Stations






























Interactive Weather Map New forecast layout! Learn more

10-Day Weather Forecast

Advertisements
Track Severe Weather on mobile